Time;durP1;ratioP1;P1;durP2;ratioP2;P2;SDS_P1;SDS_P2;PMS_P1;PMS_P2;Temp;Humidity;BMP_temperature;BMP_pressure;BME280_temperature;BME280_humidity;BME280_pressure;Samples;Min_cycle;Max_cycle;Signal;HPM_P1;HPM_P2
2024/03/25 00:03:29;;;;;;;8.88;5.00;;;;;;;13.88;100.00;100784.28;10576719;28;20043;-81
2024/03/25 00:08:51;;;;;;;14.50;5.75;;;;;;;13.91;100.00;100771.03;10563940;28;20048;-80
2024/03/25 00:14:14;;;;;;;13.30;5.13;;;;;;;13.82;100.00;100766.56;10563724;28;20047;-80
2024/03/25 00:19:38;;;;;;;9.85;5.00;;;;;;;13.91;100.00;100757.75;10563204;28;20101;-81
2024/03/25 00:25:01;;;;;;;9.60;4.95;;;;;;;13.99;100.00;100761.28;10563411;28;20082;-80
2024/03/25 00:30:24;;;;;;;9.60;4.95;;;;;;;14.01;100.00;100754.22;10562077;28;20051;-81
2024/03/25 00:35:48;;;;;;;11.00;5.50;;;;;;;14.00;100.00;100751.56;10577016;28;20056;-79
2024/03/25 00:41:10;;;;;;;13.27;5.93;;;;;;;13.91;100.00;100749.78;10577058;28;20488;-79
2024/03/25 00:46:33;;;;;;;13.45;5.90;;;;;;;13.88;100.00;100741.81;10576688;28;20043;-80
2024/03/25 00:51:57;;;;;;;11.88;5.68;;;;;;;14.02;100.00;100726.78;10562607;28;20052;-81
2024/03/25 00:57:19;;;;;;;11.65;5.63;;;;;;;14.04;100.00;100733.00;10548431;28;20060;-80
2024/03/25 01:02:42;;;;;;;11.65;6.05;;;;;;;13.90;100.00;100734.75;10560223;28;20048;-81
2024/03/25 01:08:10;;;;;;;11.77;5.60;;;;;;;13.71;100.00;100714.38;10576462;28;20054;-80
2024/03/25 01:13:33;;;;;;;13.85;6.40;;;;;;;13.47;100.00;100721.38;10561690;28;20079;-80
2024/03/25 01:18:55;;;;;;;12.20;6.57;;;;;;;13.34;100.00;100706.31;10575455;28;20044;-80
2024/03/25 01:24:19;;;;;;;10.43;5.95;;;;;;;13.30;100.00;100699.22;10572706;28;20045;-80
2024/03/25 01:29:42;;;;;;;8.15;5.60;;;;;;;13.15;100.00;100681.50;10589437;27;20051;-81
2024/03/25 01:35:05;;;;;;;15.82;6.43;;;;;;;13.36;100.00;100691.28;10560570;28;20043;-80
2024/03/25 01:40:29;;;;;;;11.15;6.50;;;;;;;13.54;100.00;100682.50;10561345;28;20449;-80
2024/03/25 01:45:55;;;;;;;11.80;7.30;;;;;;;13.59;100.00;100677.22;10548055;28;20062;-81
2024/03/25 01:51:19;;;;;;;15.05;7.20;;;;;;;13.55;100.00;100681.63;10573563;28;20131;-80
2024/03/25 01:56:46;;;;;;;10.77;6.25;;;;;;;13.65;100.00;100679.88;10559890;28;20048;-81
2024/03/25 02:02:10;;;;;;;11.73;6.45;;;;;;;13.55;100.00;100649.78;10573487;28;20054;-79
2024/03/25 02:07:33;;;;;;;8.93;6.05;;;;;;;13.53;100.00;100649.78;10559660;28;20044;-81
2024/03/25 02:12:57;;;;;;;9.90;6.13;;;;;;;13.72;100.00;100634.75;10573629;28;20096;-80
2024/03/25 02:18:19;;;;;;;12.52;6.22;;;;;;;13.73;100.00;100630.34;10558547;28;20054;-80
2024/03/25 02:23:46;;;;;;;14.40;7.03;;;;;;;13.55;100.00;100631.22;10587069;28;20039;-80
2024/03/25 02:29:12;;;;;;;12.23;6.78;;;;;;;13.47;100.00;100636.50;10573420;28;20166;-80
2024/03/25 02:34:34;;;;;;;13.20;6.70;;;;;;;13.60;100.00;100636.53;10559516;28;20043;-81
2024/03/25 02:40:00;;;;;;;11.82;6.28;;;;;;;13.64;100.00;100651.56;10567469;28;20050;-80
2024/03/25 02:45:24;;;;;;;13.85;7.47;;;;;;;13.67;100.00;100649.81;10567992;28;20047;-81
2024/03/25 02:50:46;;;;;;;13.60;7.05;;;;;;;13.78;100.00;100668.41;10581589;28;20051;-81
2024/03/25 02:56:08;;;;;;;13.52;6.80;;;;;;;13.77;100.00;100653.34;10581273;28;20047;-81
2024/03/25 03:01:32;;;;;;;13.65;6.93;;;;;;;13.84;100.00;100640.09;10579679;28;20073;-81
2024/03/25 03:06:55;;;;;;;16.13;7.03;;;;;;;14.03;100.00;100627.72;10580478;28;20060;-82
2024/03/25 03:12:17;;;;;;;13.45;7.85;;;;;;;14.07;100.00;100642.75;10580740;28;20487;-81
2024/03/25 03:17:41;;;;;;;18.83;7.82;;;;;;;14.26;100.00;100663.06;10565883;28;20151;-81
2024/03/25 03:23:04;;;;;;;14.80;7.25;;;;;;;14.23;100.00;100680.78;10579957;28;20054;-80
2024/03/25 03:28:28;;;;;;;17.35;7.95;;;;;;;14.18;100.00;100688.75;10578765;28;20047;-80
2024/03/25 03:33:52;;;;;;;16.20;8.77;;;;;;;14.04;100.00;100716.19;10579194;28;20387;-80
2024/03/25 03:39:14;;;;;;;16.77;8.48;;;;;;;14.01;100.00;100719.72;10564756;28;20071;-79
2024/03/25 03:44:37;;;;;;;17.75;7.63;;;;;;;13.98;100.00;100717.03;10594055;27;20050;-79
2024/03/25 03:50:01;;;;;;;16.27;9.38;;;;;;;13.99;100.00;100726.78;10563509;28;20540;-79
2024/03/25 03:55:23;;;;;;;13.90;8.52;;;;;;;13.90;100.00;100724.13;10564841;28;20096;-81
2024/03/25 04:00:46;;;;;;;14.63;7.30;;;;;;;14.02;100.00;100734.75;10578327;28;20044;-80
2024/03/25 04:06:15;;;;;;;16.30;7.22;;;;;;;14.17;100.00;100718.84;10563272;28;20078;-80
2024/03/25 04:11:37;;;;;;;18.25;9.07;;;;;;;14.12;100.00;100735.63;10577521;28;20048;-80
2024/03/25 04:17:00;;;;;;;16.98;8.38;;;;;;;14.06;100.00;100751.56;10563525;28;20060;-80
2024/03/25 04:22:24;;;;;;;14.30;9.40;;;;;;;14.01;100.00;100772.78;10576886;28;20047;-79
2024/03/25 04:27:46;;;;;;;16.23;10.70;;;;;;;13.63;100.00;100777.13;10577227;28;20039;-80
2024/03/25 04:33:09;;;;;;;19.60;12.32;;;;;;;13.55;100.00;100762.06;10577085;28;20070;-80
